sensor_id;sensor_type;location;lat;lon;timestamp;P1;durP1;ratioP1;P2;durP2;ratioP2
11823;SDS011;5969;50.780;7.726;2023-05-14T00:00:00;7.28;;;6.57;;
11823;SDS011;5969;50.780;7.726;2023-05-14T00:02:28;8.25;;;6.55;;
11823;SDS011;5969;50.780;7.726;2023-05-14T00:04:54;10.32;;;6.28;;
11823;SDS011;5969;50.780;7.726;2023-05-14T00:07:21;7.03;;;6.40;;
11823;SDS011;5969;50.780;7.726;2023-05-14T00:09:55;6.80;;;4.95;;
11823;SDS011;5969;50.780;7.726;2023-05-14T00:12:22;5.38;;;4.93;;
11823;SDS011;5969;50.780;7.726;2023-05-14T00:14:50;7.45;;;4.50;;
11823;SDS011;5969;50.780;7.726;2023-05-14T00:17:17;7.70;;;5.68;;
11823;SDS011;5969;50.780;7.726;2023-05-14T00:19:44;7.28;;;5.57;;
11823;SDS011;5969;50.780;7.726;2023-05-14T00:22:10;8.75;;;7.00;;
11823;SDS011;5969;50.780;7.726;2023-05-14T00:24:37;6.55;;;5.95;;
11823;SDS011;5969;50.780;7.726;2023-05-14T00:27:05;8.90;;;6.80;;
11823;SDS011;5969;50.780;7.726;2023-05-14T00:29:32;7.65;;;6.95;;
11823;SDS011;5969;50.780;7.726;2023-05-14T00:31:59;7.85;;;6.53;;
11823;SDS011;5969;50.780;7.726;2023-05-14T00:34:25;7.38;;;5.47;;
11823;SDS011;5969;50.780;7.726;2023-05-14T00:36:52;6.38;;;5.72;;
11823;SDS011;5969;50.780;7.726;2023-05-14T00:39:19;7.40;;;6.18;;
11823;SDS011;5969;50.780;7.726;2023-05-14T00:41:46;7.57;;;5.88;;
11823;SDS011;5969;50.780;7.726;2023-05-14T00:44:14;5.97;;;5.30;;
11823;SDS011;5969;50.780;7.726;2023-05-14T00:46:40;7.43;;;4.88;;
11823;SDS011;5969;50.780;7.726;2023-05-14T00:49:08;8.15;;;4.95;;
11823;SDS011;5969;50.780;7.726;2023-05-14T00:51:35;7.15;;;4.72;;
11823;SDS011;5969;50.780;7.726;2023-05-14T00:54:02;7.00;;;5.00;;
11823;SDS011;5969;50.780;7.726;2023-05-14T00:56:29;6.72;;;5.18;;
11823;SDS011;5969;50.780;7.726;2023-05-14T00:58:56;6.97;;;5.43;;
11823;SDS011;5969;50.780;7.726;2023-05-14T01:01:24;6.80;;;5.20;;
11823;SDS011;5969;50.780;7.726;2023-05-14T01:03:52;7.50;;;4.80;;
11823;SDS011;5969;50.780;7.726;2023-05-14T01:06:23;6.30;;;5.70;;
11823;SDS011;5969;50.780;7.726;2023-05-14T01:08:58;6.00;;;5.40;;
11823;SDS011;5969;50.780;7.726;2023-05-14T01:11:32;9.93;;;5.65;;
11823;SDS011;5969;50.780;7.726;2023-05-14T01:14:12;6.60;;;5.38;;
11823;SDS011;5969;50.780;7.726;2023-05-14T01:16:46;8.60;;;5.90;;
11823;SDS011;5969;50.780;7.726;2023-05-14T01:19:21;6.00;;;5.40;;
11823;SDS011;5969;50.780;7.726;2023-05-14T01:21:53;6.85;;;5.50;;
11823;SDS011;5969;50.780;7.726;2023-05-14T01:24:20;6.95;;;5.18;;
11823;SDS011;5969;50.780;7.726;2023-05-14T01:26:47;5.88;;;5.15;;
11823;SDS011;5969;50.780;7.726;2023-05-14T01:29:15;6.18;;;5.53;;
11823;SDS011;5969;50.780;7.726;2023-05-14T01:31:47;7.20;;;5.72;;
11823;SDS011;5969;50.780;7.726;2023-05-14T01:34:16;6.60;;;5.95;;
11823;SDS011;5969;50.780;7.726;2023-05-14T01:36:46;6.20;;;5.60;;
11823;SDS011;5969;50.780;7.726;2023-05-14T01:39:15;9.00;;;5.90;;
11823;SDS011;5969;50.780;7.726;2023-05-14T01:41:42;6.43;;;5.60;;
11823;SDS011;5969;50.780;7.726;2023-05-14T01:44:10;6.65;;;5.95;;
11823;SDS011;5969;50.780;7.726;2023-05-14T01:46:37;6.20;;;5.63;;
11823;SDS011;5969;50.780;7.726;2023-05-14T01:49:05;6.88;;;5.72;;
11823;SDS011;5969;50.780;7.726;2023-05-14T01:51:32;8.57;;;6.05;;
11823;SDS011;5969;50.780;7.726;2023-05-14T01:53:59;7.43;;;6.60;;
11823;SDS011;5969;50.780;7.726;2023-05-14T01:56:27;8.55;;;6.82;;
11823;SDS011;5969;50.780;7.726;2023-05-14T01:58:54;10.90;;;6.88;;
11823;SDS011;5969;50.780;7.726;2023-05-14T02:01:21;10.18;;;6.82;;
11823;SDS011;5969;50.780;7.726;2023-05-14T02:03:50;7.28;;;6.43;;
11823;SDS011;5969;50.780;7.726;2023-05-14T02:06:16;6.70;;;6.10;;
11823;SDS011;5969;50.780;7.726;2023-05-14T02:08:43;7.07;;;6.45;;
11823;SDS011;5969;50.780;7.726;2023-05-14T02:11:10;10.13;;;6.70;;
11823;SDS011;5969;50.780;7.726;2023-05-14T02:13:38;7.97;;;6.68;;
11823;SDS011;5969;50.780;7.726;2023-05-14T02:16:05;6.78;;;6.18;;
11823;SDS011;5969;50.780;7.726;2023-05-14T02:18:32;5.70;;;5.15;;
11823;SDS011;5969;50.780;7.726;2023-05-14T02:20:59;8.00;;;5.05;;
11823;SDS011;5969;50.780;7.726;2023-05-14T02:23:26;7.97;;;5.03;;
11823;SDS011;5969;50.780;7.726;2023-05-14T02:25:52;7.53;;;4.85;;
11823;SDS011;5969;50.780;7.726;2023-05-14T02:28:19;7.05;;;5.18;;
11823;SDS011;5969;50.780;7.726;2023-05-14T02:30:47;6.93;;;5.15;;
11823;SDS011;5969;50.780;7.726;2023-05-14T02:33:14;6.18;;;5.20;;
11823;SDS011;5969;50.780;7.726;2023-05-14T02:35:41;6.78;;;4.90;;
11823;SDS011;5969;50.780;7.726;2023-05-14T02:38:07;6.93;;;5.15;;
11823;SDS011;5969;50.780;7.726;2023-05-14T02:40:35;9.73;;;4.93;;
11823;SDS011;5969;50.780;7.726;2023-05-14T02:43:02;5.03;;;4.43;;
11823;SDS011;5969;50.780;7.726;2023-05-14T02:45:34;8.07;;;4.95;;
11823;SDS011;5969;50.780;7.726;2023-05-14T02:48:02;10.07;;;4.68;;
11823;SDS011;5969;50.780;7.726;2023-05-14T02:50:29;6.18;;;5.60;;
11823;SDS011;5969;50.780;7.726;2023-05-14T02:52:56;6.18;;;5.60;;
11823;SDS011;5969;50.780;7.726;2023-05-14T02:55:22;6.80;;;6.20;;
11823;SDS011;5969;50.780;7.726;2023-05-14T02:57:50;6.47;;;5.97;;
11823;SDS011;5969;50.780;7.726;2023-05-14T03:00:17;7.35;;;6.70;;
11823;SDS011;5969;50.780;7.726;2023-05-14T03:02:44;6.63;;;6.03;;
11823;SDS011;5969;50.780;7.726;2023-05-14T03:05:13;6.20;;;5.25;;
11823;SDS011;5969;50.780;7.726;2023-05-14T03:07:39;7.07;;;5.30;;
11823;SDS011;5969;50.780;7.726;2023-05-14T03:10:06;5.32;;;4.78;;
11823;SDS011;5969;50.780;7.726;2023-05-14T03:12:34;7.93;;;5.05;;
11823;SDS011;5969;50.780;7.726;2023-05-14T03:15:00;6.32;;;5.15;;
11823;SDS011;5969;50.780;7.726;2023-05-14T03:17:27;5.47;;;4.97;;
11823;SDS011;5969;50.780;7.726;2023-05-14T03:19:54;6.90;;;5.00;;
11823;SDS011;5969;50.780;7.726;2023-05-14T03:22:22;5.30;;;4.85;;
11823;SDS011;5969;50.780;7.726;2023-05-14T03:24:49;6.88;;;4.60;;
11823;SDS011;5969;50.780;7.726;2023-05-14T03:27:16;5.95;;;5.00;;
11823;SDS011;5969;50.780;7.726;2023-05-14T03:29:43;6.93;;;5.38;;
11823;SDS011;5969;50.780;7.726;2023-05-14T03:32:09;6.28;;;5.68;;
11823;SDS011;5969;50.780;7.726;2023-05-14T03:34:36;6.55;;;5.97;;
11823;SDS011;5969;50.780;7.726;2023-05-14T03:37:04;7.00;;;6.30;;
11823;SDS011;5969;50.780;7.726;2023-05-14T03:39:32;5.97;;;5.35;;
11823;SDS011;5969;50.780;7.726;2023-05-14T03:41:59;6.28;;;5.25;;
11823;SDS011;5969;50.780;7.726;2023-05-14T03:44:25;5.32;;;4.82;;
11823;SDS011;5969;50.780;7.726;2023-05-14T03:46:52;5.25;;;4.68;;
11823;SDS011;5969;50.780;7.726;2023-05-14T03:49:19;8.35;;;5.10;;
11823;SDS011;5969;50.780;7.726;2023-05-14T03:51:46;6.05;;;5.40;;
11823;SDS011;5969;50.780;7.726;2023-05-14T03:54:13;6.57;;;5.97;;
11823;SDS011;5969;50.780;7.726;2023-05-14T03:56:41;6.25;;;5.72;;
11823;SDS011;5969;50.780;7.726;2023-05-14T03:59:08;5.82;;;5.15;;
11823;SDS011;5969;50.780;7.726;2023-05-14T04:01:35;5.80;;;4.90;;
11823;SDS011;5969;50.780;7.726;2023-05-14T04:04:01;5.20;;;4.57;;
11823;SDS011;5969;50.780;7.726;2023-05-14T04:06:28;6.50;;;4.70;;
11823;SDS011;5969;50.780;7.726;2023-05-14T04:08:55;7.53;;;5.63;;
11823;SDS011;5969;50.780;7.726;2023-05-14T04:11:23;9.75;;;5.20;;
11823;SDS011;5969;50.780;7.726;2023-05-14T04:13:51;5.55;;;5.05;;
11823;SDS011;5969;50.780;7.726;2023-05-14T04:16:18;7.07;;;5.30;;
11823;SDS011;5969;50.780;7.726;2023-05-14T04:18:44;7.32;;;5.65;;
11823;SDS011;5969;50.780;7.726;2023-05-14T04:21:11;5.63;;;5.22;;
11823;SDS011;5969;50.780;7.726;2023-05-14T04:23:38;5.85;;;5.25;;
11823;SDS011;5969;50.780;7.726;2023-05-14T04:26:05;5.80;;;5.30;;
11823;SDS011;5969;50.780;7.726;2023-05-14T04:28:32;6.10;;;5.22;;
11823;SDS011;5969;50.780;7.726;2023-05-14T04:31:01;7.70;;;5.50;;
11823;SDS011;5969;50.780;7.726;2023-05-14T04:33:28;8.10;;;5.30;;
11823;SDS011;5969;50.780;7.726;2023-05-14T04:35:55;6.50;;;5.80;;
11823;SDS011;5969;50.780;7.726;2023-05-14T04:38:22;8.35;;;5.28;;
11823;SDS011;5969;50.780;7.726;2023-05-14T04:40:49;8.52;;;5.88;;
11823;SDS011;5969;50.780;7.726;2023-05-14T04:43:15;7.32;;;6.28;;
11823;SDS011;5969;50.780;7.726;2023-05-14T04:45:42;7.45;;;6.72;;
11823;SDS011;5969;50.780;7.726;2023-05-14T04:48:11;7.43;;;6.65;;
11823;SDS011;5969;50.780;7.726;2023-05-14T04:50:37;7.03;;;6.32;;
11823;SDS011;5969;50.780;7.726;2023-05-14T04:53:04;7.70;;;7.03;;
11823;SDS011;5969;50.780;7.726;2023-05-14T04:55:31;7.43;;;6.72;;
11823;SDS011;5969;50.780;7.726;2023-05-14T04:57:58;9.18;;;8.48;;
11823;SDS011;5969;50.780;7.726;2023-05-14T05:00:24;5.85;;;5.35;;
11823;SDS011;5969;50.780;7.726;2023-05-14T05:02:52;6.00;;;5.38;;
11823;SDS011;5969;50.780;7.726;2023-05-14T05:05:21;7.03;;;6.43;;
11823;SDS011;5969;50.780;7.726;2023-05-14T05:07:48;5.95;;;5.45;;
11823;SDS011;5969;50.780;7.726;2023-05-14T05:10:14;5.40;;;4.90;;
11823;SDS011;5969;50.780;7.726;2023-05-14T05:12:41;6.13;;;4.93;;
11823;SDS011;5969;50.780;7.726;2023-05-14T05:15:08;4.85;;;4.45;;
11823;SDS011;5969;50.780;7.726;2023-05-14T05:17:35;4.70;;;4.30;;
11823;SDS011;5969;50.780;7.726;2023-05-14T05:20:02;4.78;;;4.40;;
11823;SDS011;5969;50.780;7.726;2023-05-14T05:22:33;5.00;;;4.07;;
11823;SDS011;5969;50.780;7.726;2023-05-14T05:25:00;5.22;;;4.70;;
11823;SDS011;5969;50.780;7.726;2023-05-14T05:27:29;5.57;;;5.13;;
11823;SDS011;5969;50.780;7.726;2023-05-14T05:29:56;5.70;;;5.20;;
11823;SDS011;5969;50.780;7.726;2023-05-14T05:32:22;8.15;;;5.90;;
11823;SDS011;5969;50.780;7.726;2023-05-14T05:34:49;7.63;;;6.93;;
11823;SDS011;5969;50.780;7.726;2023-05-14T05:37:16;7.43;;;6.70;;
11823;SDS011;5969;50.780;7.726;2023-05-14T05:39:44;7.13;;;6.43;;
11823;SDS011;5969;50.780;7.726;2023-05-14T05:42:12;7.00;;;6.32;;
11823;SDS011;5969;50.780;7.726;2023-05-14T05:44:39;7.75;;;6.75;;
11823;SDS011;5969;50.780;7.726;2023-05-14T05:47:06;8.63;;;6.47;;
11823;SDS011;5969;50.780;7.726;2023-05-14T05:49:32;6.40;;;5.80;;
11823;SDS011;5969;50.780;7.726;2023-05-14T05:52:01;7.07;;;6.47;;
11823;SDS011;5969;50.780;7.726;2023-05-14T05:54:28;7.50;;;6.18;;
11823;SDS011;5969;50.780;7.726;2023-05-14T05:56:57;6.25;;;5.68;;
11823;SDS011;5969;50.780;7.726;2023-05-14T05:59:24;5.90;;;5.22;;
11823;SDS011;5969;50.780;7.726;2023-05-14T06:01:51;5.38;;;4.88;;
11823;SDS011;5969;50.780;7.726;2023-05-14T06:04:17;5.60;;;5.10;;
11823;SDS011;5969;50.780;7.726;2023-05-14T06:06:44;6.05;;;5.55;;
11823;SDS011;5969;50.780;7.726;2023-05-14T06:09:11;7.55;;;5.72;;
11823;SDS011;5969;50.780;7.726;2023-05-14T06:11:38;6.57;;;5.55;;
11823;SDS011;5969;50.780;7.726;2023-05-14T06:14:06;6.80;;;5.80;;
11823;SDS011;5969;50.780;7.726;2023-05-14T06:16:33;6.03;;;5.45;;
11823;SDS011;5969;50.780;7.726;2023-05-14T06:19:00;6.20;;;5.60;;
11823;SDS011;5969;50.780;7.726;2023-05-14T06:21:26;6.15;;;5.65;;
11823;SDS011;5969;50.780;7.726;2023-05-14T06:23:53;6.47;;;5.80;;
11823;SDS011;5969;50.780;7.726;2023-05-14T06:26:20;7.18;;;6.30;;
11823;SDS011;5969;50.780;7.726;2023-05-14T06:28:47;6.47;;;5.88;;
11823;SDS011;5969;50.780;7.726;2023-05-14T06:31:15;5.97;;;5.47;;
11823;SDS011;5969;50.780;7.726;2023-05-14T06:33:42;7.70;;;6.00;;
11823;SDS011;5969;50.780;7.726;2023-05-14T06:36:09;6.25;;;5.65;;
11823;SDS011;5969;50.780;7.726;2023-05-14T06:38:36;6.07;;;5.57;;
11823;SDS011;5969;50.780;7.726;2023-05-14T06:41:03;7.80;;;6.28;;
11823;SDS011;5969;50.780;7.726;2023-05-14T06:43:30;6.57;;;5.97;;
11823;SDS011;5969;50.780;7.726;2023-05-14T06:45:56;5.78;;;5.28;;
11823;SDS011;5969;50.780;7.726;2023-05-14T06:48:49;6.35;;;5.68;;
11823;SDS011;5969;50.780;7.726;2023-05-14T06:51:22;6.05;;;5.45;;
11823;SDS011;5969;50.780;7.726;2023-05-14T06:53:48;6.68;;;5.38;;
11823;SDS011;5969;50.780;7.726;2023-05-14T06:56:16;5.00;;;4.50;;
11823;SDS011;5969;50.780;7.726;2023-05-14T06:58:43;6.03;;;5.10;;
11823;SDS011;5969;50.780;7.726;2023-05-14T07:01:13;5.30;;;4.80;;
11823;SDS011;5969;50.780;7.726;2023-05-14T07:03:41;5.85;;;5.03;;
11823;SDS011;5969;50.780;7.726;2023-05-14T07:06:08;6.78;;;4.85;;
11823;SDS011;5969;50.780;7.726;2023-05-14T07:08:35;6.00;;;4.70;;
11823;SDS011;5969;50.780;7.726;2023-05-14T07:11:01;5.22;;;4.60;;
11823;SDS011;5969;50.780;7.726;2023-05-14T07:13:28;5.20;;;4.70;;
11823;SDS011;5969;50.780;7.726;2023-05-14T07:15:55;6.00;;;4.97;;
11823;SDS011;5969;50.780;7.726;2023-05-14T07:18:22;4.82;;;4.40;;
11823;SDS011;5969;50.780;7.726;2023-05-14T07:20:52;5.80;;;5.00;;
11823;SDS011;5969;50.780;7.726;2023-05-14T07:23:19;5.20;;;4.70;;
11823;SDS011;5969;50.780;7.726;2023-05-14T07:25:46;5.95;;;4.63;;
11823;SDS011;5969;50.780;7.726;2023-05-14T07:28:13;5.28;;;4.78;;
11823;SDS011;5969;50.780;7.726;2023-05-14T07:30:39;4.50;;;4.13;;
11823;SDS011;5969;50.780;7.726;2023-05-14T07:33:06;4.90;;;4.40;;
11823;SDS011;5969;50.780;7.726;2023-05-14T07:35:33;6.35;;;4.70;;
11823;SDS011;5969;50.780;7.726;2023-05-14T07:38:02;4.88;;;4.47;;
11823;SDS011;5969;50.780;7.726;2023-05-14T07:40:29;4.95;;;4.10;;
11823;SDS011;5969;50.780;7.726;2023-05-14T07:42:56;4.82;;;4.32;;
11823;SDS011;5969;50.780;7.726;2023-05-14T07:45:23;4.50;;;4.10;;
11823;SDS011;5969;50.780;7.726;2023-05-14T07:47:50;3.97;;;3.60;;
11823;SDS011;5969;50.780;7.726;2023-05-14T07:50:17;6.80;;;3.80;;
11823;SDS011;5969;50.780;7.726;2023-05-14T07:52:44;5.10;;;3.83;;
11823;SDS011;5969;50.780;7.726;2023-05-14T07:55:12;5.25;;;3.55;;
11823;SDS011;5969;50.780;7.726;2023-05-14T07:57:42;3.97;;;3.58;;
11823;SDS011;5969;50.780;7.726;2023-05-14T08:00:12;3.28;;;2.97;;
11823;SDS011;5969;50.780;7.726;2023-05-14T08:02:40;3.10;;;2.80;;
11823;SDS011;5969;50.780;7.726;2023-05-14T08:05:19;2.85;;;2.65;;
11823;SDS011;5969;50.780;7.726;2023-05-14T08:07:48;3.47;;;3.17;;
11823;SDS011;5969;50.780;7.726;2023-05-14T08:10:17;4.28;;;3.10;;
11823;SDS011;5969;50.780;7.726;2023-05-14T08:12:43;3.15;;;2.95;;
11823;SDS011;5969;50.780;7.726;2023-05-14T08:15:10;3.08;;;2.78;;
11823;SDS011;5969;50.780;7.726;2023-05-14T08:17:37;3.03;;;2.72;;
11823;SDS011;5969;50.780;7.726;2023-05-14T08:20:06;3.53;;;2.83;;
11823;SDS011;5969;50.780;7.726;2023-05-14T08:22:34;2.97;;;2.67;;
11823;SDS011;5969;50.780;7.726;2023-05-14T08:25:03;2.97;;;2.67;;
11823;SDS011;5969;50.780;7.726;2023-05-14T08:27:32;4.72;;;2.70;;
11823;SDS011;5969;50.780;7.726;2023-05-14T08:29:59;3.85;;;2.70;;
11823;SDS011;5969;50.780;7.726;2023-05-14T08:32:25;2.65;;;2.45;;
11823;SDS011;5969;50.780;7.726;2023-05-14T08:34:52;3.17;;;2.88;;
11823;SDS011;5969;50.780;7.726;2023-05-14T08:37:19;2.58;;;2.35;;
11823;SDS011;5969;50.780;7.726;2023-05-14T08:39:46;3.05;;;2.40;;
11823;SDS011;5969;50.780;7.726;2023-05-14T08:42:13;2.63;;;2.38;;
11823;SDS011;5969;50.780;7.726;2023-05-14T08:44:46;2.80;;;2.60;;
11823;SDS011;5969;50.780;7.726;2023-05-14T08:47:15;2.75;;;2.47;;
11823;SDS011;5969;50.780;7.726;2023-05-14T08:49:45;5.07;;;2.53;;
11823;SDS011;5969;50.780;7.726;2023-05-14T08:52:14;2.42;;;2.22;;
11823;SDS011;5969;50.780;7.726;2023-05-14T08:54:43;2.90;;;2.70;;
11823;SDS011;5969;50.780;7.726;2023-05-14T08:57:11;2.97;;;2.60;;
11823;SDS011;5969;50.780;7.726;2023-05-14T08:59:40;2.85;;;2.63;;
11823;SDS011;5969;50.780;7.726;2023-05-14T09:02:08;2.58;;;2.38;;
11823;SDS011;5969;50.780;7.726;2023-05-14T09:04:40;3.08;;;2.05;;
11823;SDS011;5969;50.780;7.726;2023-05-14T09:07:08;2.40;;;2.20;;
11823;SDS011;5969;50.780;7.726;2023-05-14T09:09:35;2.22;;;2.13;;
11823;SDS011;5969;50.780;7.726;2023-05-14T09:12:02;3.47;;;2.40;;
11823;SDS011;5969;50.780;7.726;2023-05-14T09:14:31;3.83;;;2.60;;
11823;SDS011;5969;50.780;7.726;2023-05-14T09:17:14;4.07;;;2.50;;
11823;SDS011;5969;50.780;7.726;2023-05-14T09:19:47;3.00;;;2.42;;
11823;SDS011;5969;50.780;7.726;2023-05-14T09:23:43;3.95;;;2.40;;
11823;SDS011;5969;50.780;7.726;2023-05-14T09:25:32;3.53;;;2.65;;
11823;SDS011;5969;50.780;7.726;2023-05-14T09:28:14;2.67;;;2.45;;
11823;SDS011;5969;50.780;7.726;2023-05-14T09:30:45;2.60;;;2.40;;
11823;SDS011;5969;50.780;7.726;2023-05-14T09:33:24;2.63;;;2.30;;
11823;SDS011;5969;50.780;7.726;2023-05-14T09:35:53;2.50;;;2.30;;
11823;SDS011;5969;50.780;7.726;2023-05-14T09:38:22;3.05;;;2.30;;
11823;SDS011;5969;50.780;7.726;2023-05-14T09:40:54;2.78;;;2.58;;
11823;SDS011;5969;50.780;7.726;2023-05-14T09:43:21;2.35;;;2.15;;
11823;SDS011;5969;50.780;7.726;2023-05-14T09:45:48;3.05;;;2.10;;
11823;SDS011;5969;50.780;7.726;2023-05-14T09:48:15;3.45;;;2.50;;
11823;SDS011;5969;50.780;7.726;2023-05-14T09:50:42;2.20;;;2.00;;
11823;SDS011;5969;50.780;7.726;2023-05-14T09:53:09;2.50;;;2.30;;
11823;SDS011;5969;50.780;7.726;2023-05-14T09:55:36;2.88;;;2.67;;
11823;SDS011;5969;50.780;7.726;2023-05-14T09:58:05;2.10;;;1.90;;
11823;SDS011;5969;50.780;7.726;2023-05-14T10:00:32;2.30;;;2.10;;
11823;SDS011;5969;50.780;7.726;2023-05-14T10:03:00;2.00;;;1.90;;
11823;SDS011;5969;50.780;7.726;2023-05-14T10:05:31;2.35;;;2.15;;
11823;SDS011;5969;50.780;7.726;2023-05-14T10:08:00;2.08;;;1.90;;
11823;SDS011;5969;50.780;7.726;2023-05-14T10:10:34;2.28;;;2.08;;
11823;SDS011;5969;50.780;7.726;2023-05-14T10:13:02;2.67;;;2.47;;
11823;SDS011;5969;50.780;7.726;2023-05-14T10:15:36;2.40;;;1.98;;
11823;SDS011;5969;50.780;7.726;2023-05-14T10:18:11;2.10;;;1.90;;
11823;SDS011;5969;50.780;7.726;2023-05-14T10:20:44;2.97;;;1.90;;
11823;SDS011;5969;50.780;7.726;2023-05-14T10:23:14;2.00;;;1.80;;
11823;SDS011;5969;50.780;7.726;2023-05-14T10:25:41;1.90;;;1.80;;
11823;SDS011;5969;50.780;7.726;2023-05-14T10:28:09;2.30;;;2.10;;
11823;SDS011;5969;50.780;7.726;2023-05-14T10:30:40;2.05;;;1.85;;
11823;SDS011;5969;50.780;7.726;2023-05-14T10:33:10;1.98;;;1.80;;
11823;SDS011;5969;50.780;7.726;2023-05-14T10:35:55;2.30;;;2.00;;
11823;SDS011;5969;50.780;7.726;2023-05-14T10:38:25;2.10;;;1.90;;
11823;SDS011;5969;50.780;7.726;2023-05-14T10:40:57;3.22;;;1.88;;
11823;SDS011;5969;50.780;7.726;2023-05-14T10:43:27;1.85;;;1.75;;
11823;SDS011;5969;50.780;7.726;2023-05-14T10:45:55;1.60;;;1.50;;
11823;SDS011;5969;50.780;7.726;2023-05-14T10:48:23;2.00;;;1.80;;
11823;SDS011;5969;50.780;7.726;2023-05-14T10:50:50;2.58;;;1.60;;
11823;SDS011;5969;50.780;7.726;2023-05-14T10:53:18;2.25;;;1.70;;
11823;SDS011;5969;50.780;7.726;2023-05-14T10:55:46;1.70;;;1.60;;
11823;SDS011;5969;50.780;7.726;2023-05-14T10:58:13;1.83;;;1.60;;
11823;SDS011;5969;50.780;7.726;2023-05-14T11:00:42;1.83;;;1.70;;
11823;SDS011;5969;50.780;7.726;2023-05-14T11:03:13;2.20;;;1.60;;
11823;SDS011;5969;50.780;7.726;2023-05-14T11:05:41;1.83;;;1.50;;
11823;SDS011;5969;50.780;7.726;2023-05-14T11:08:09;1.95;;;1.63;;
11823;SDS011;5969;50.780;7.726;2023-05-14T11:10:37;2.17;;;1.70;;
11823;SDS011;5969;50.780;7.726;2023-05-14T11:13:05;1.70;;;1.60;;
11823;SDS011;5969;50.780;7.726;2023-05-14T11:15:31;2.30;;;1.60;;
11823;SDS011;5969;50.780;7.726;2023-05-14T11:18:00;3.67;;;1.70;;
11823;SDS011;5969;50.780;7.726;2023-05-14T11:20:27;1.70;;;1.60;;
11823;SDS011;5969;50.780;7.726;2023-05-14T11:22:53;1.73;;;1.63;;
11823;SDS011;5969;50.780;7.726;2023-05-14T11:25:20;1.70;;;1.60;;
11823;SDS011;5969;50.780;7.726;2023-05-14T11:27:49;2.53;;;1.70;;
11823;SDS011;5969;50.780;7.726;2023-05-14T11:30:20;2.08;;;1.58;;
11823;SDS011;5969;50.780;7.726;2023-05-14T11:32:47;2.38;;;2.03;;
11823;SDS011;5969;50.780;7.726;2023-05-14T11:35:16;1.80;;;1.70;;
11823;SDS011;5969;50.780;7.726;2023-05-14T11:37:48;1.83;;;1.55;;
11823;SDS011;5969;50.780;7.726;2023-05-14T11:40:16;1.63;;;1.52;;
11823;SDS011;5969;50.780;7.726;2023-05-14T11:42:43;1.70;;;1.60;;
11823;SDS011;5969;50.780;7.726;2023-05-14T11:45:10;2.20;;;1.70;;
11823;SDS011;5969;50.780;7.726;2023-05-14T11:47:39;2.85;;;1.60;;
11823;SDS011;5969;50.780;7.726;2023-05-14T11:50:06;3.10;;;1.70;;
11823;SDS011;5969;50.780;7.726;2023-05-14T11:52:37;2.45;;;1.90;;
11823;SDS011;5969;50.780;7.726;2023-05-14T11:55:06;2.22;;;1.70;;
11823;SDS011;5969;50.780;7.726;2023-05-14T11:57:36;1.60;;;1.50;;
11823;SDS011;5969;50.780;7.726;2023-05-14T12:00:03;1.60;;;1.50;;
11823;SDS011;5969;50.780;7.726;2023-05-14T12:02:37;1.80;;;1.70;;
11823;SDS011;5969;50.780;7.726;2023-05-14T12:05:04;1.85;;;1.60;;
11823;SDS011;5969;50.780;7.726;2023-05-14T12:07:34;1.50;;;1.40;;
11823;SDS011;5969;50.780;7.726;2023-05-14T12:10:04;1.83;;;1.58;;
11823;SDS011;5969;50.780;7.726;2023-05-14T12:12:33;3.03;;;1.40;;
11823;SDS011;5969;50.780;7.726;2023-05-14T12:15:01;1.70;;;1.60;;
11823;SDS011;5969;50.780;7.726;2023-05-14T12:17:28;1.55;;;1.45;;
11823;SDS011;5969;50.780;7.726;2023-05-14T12:19:55;1.60;;;1.50;;
11823;SDS011;5969;50.780;7.726;2023-05-14T12:22:22;2.58;;;1.45;;
11823;SDS011;5969;50.780;7.726;2023-05-14T12:24:54;1.55;;;1.45;;
11823;SDS011;5969;50.780;7.726;2023-05-14T12:27:23;2.22;;;1.50;;
11823;SDS011;5969;50.780;7.726;2023-05-14T12:29:57;2.53;;;1.50;;
11823;SDS011;5969;50.780;7.726;2023-05-14T12:32:24;1.55;;;1.40;;
11823;SDS011;5969;50.780;7.726;2023-05-14T12:34:51;3.15;;;1.35;;
11823;SDS011;5969;50.780;7.726;2023-05-14T12:37:17;1.92;;;1.40;;
11823;SDS011;5969;50.780;7.726;2023-05-14T12:39:44;1.30;;;1.20;;
11823;SDS011;5969;50.780;7.726;2023-05-14T12:42:13;1.30;;;1.20;;
11823;SDS011;5969;50.780;7.726;2023-05-14T12:44:40;1.48;;;1.38;;
11823;SDS011;5969;50.780;7.726;2023-05-14T12:47:06;1.60;;;1.40;;
11823;SDS011;5969;50.780;7.726;2023-05-14T12:49:33;1.80;;;1.58;;
11823;SDS011;5969;50.780;7.726;2023-05-14T12:52:00;1.40;;;1.30;;
11823;SDS011;5969;50.780;7.726;2023-05-14T12:54:27;1.40;;;1.30;;
11823;SDS011;5969;50.780;7.726;2023-05-14T12:56:55;2.25;;;1.40;;
11823;SDS011;5969;50.780;7.726;2023-05-14T12:59:23;1.50;;;1.40;;
11823;SDS011;5969;50.780;7.726;2023-05-14T13:01:50;1.60;;;1.48;;
11823;SDS011;5969;50.780;7.726;2023-05-14T13:04:17;1.70;;;1.10;;
11823;SDS011;5969;50.780;7.726;2023-05-14T13:06:44;1.50;;;1.25;;
11823;SDS011;5969;50.780;7.726;2023-05-14T13:09:11;1.67;;;1.58;;
11823;SDS011;5969;50.780;7.726;2023-05-14T13:11:43;1.20;;;1.10;;
11823;SDS011;5969;50.780;7.726;2023-05-14T13:14:10;1.90;;;1.30;;
11823;SDS011;5969;50.780;7.726;2023-05-14T13:16:38;1.27;;;1.10;;
11823;SDS011;5969;50.780;7.726;2023-05-14T13:19:05;1.33;;;1.00;;
11823;SDS011;5969;50.780;7.726;2023-05-14T13:21:34;1.20;;;1.10;;
11823;SDS011;5969;50.780;7.726;2023-05-14T13:24:01;1.67;;;1.08;;
11823;SDS011;5969;50.780;7.726;2023-05-14T13:26:37;1.30;;;1.20;;
11823;SDS011;5969;50.780;7.726;2023-05-14T13:29:04;1.30;;;1.20;;
11823;SDS011;5969;50.780;7.726;2023-05-14T13:31:31;1.55;;;1.17;;
11823;SDS011;5969;50.780;7.726;2023-05-14T13:33:59;1.42;;;1.05;;
11823;SDS011;5969;50.780;7.726;2023-05-14T13:36:26;1.63;;;1.52;;
11823;SDS011;5969;50.780;7.726;2023-05-14T13:38:56;1.60;;;1.45;;
11823;SDS011;5969;50.780;7.726;2023-05-14T13:41:22;1.67;;;1.58;;
11823;SDS011;5969;50.780;7.726;2023-05-14T13:43:50;2.20;;;2.00;;
11823;SDS011;5969;50.780;7.726;2023-05-14T13:46:17;1.50;;;1.30;;
11823;SDS011;5969;50.780;7.726;2023-05-14T13:48:44;3.55;;;1.30;;
11823;SDS011;5969;50.780;7.726;2023-05-14T13:51:12;1.35;;;1.25;;
11823;SDS011;5969;50.780;7.726;2023-05-14T13:53:39;1.40;;;1.30;;
11823;SDS011;5969;50.780;7.726;2023-05-14T13:56:06;1.98;;;1.38;;
11823;SDS011;5969;50.780;7.726;2023-05-14T13:58:32;1.98;;;1.25;;
11823;SDS011;5969;50.780;7.726;2023-05-14T14:00:59;1.92;;;1.55;;
11823;SDS011;5969;50.780;7.726;2023-05-14T14:03:26;2.60;;;1.20;;
11823;SDS011;5969;50.780;7.726;2023-05-14T14:05:53;1.23;;;1.13;;
11823;SDS011;5969;50.780;7.726;2023-05-14T14:08:21;1.30;;;1.20;;
11823;SDS011;5969;50.780;7.726;2023-05-14T14:10:48;2.58;;;1.30;;
11823;SDS011;5969;50.780;7.726;2023-05-14T14:13:15;1.75;;;1.45;;
11823;SDS011;5969;50.780;7.726;2023-05-14T14:15:41;2.08;;;1.30;;
11823;SDS011;5969;50.780;7.726;2023-05-14T14:18:08;1.60;;;1.50;;
11823;SDS011;5969;50.780;7.726;2023-05-14T14:20:35;1.08;;;0.98;;
11823;SDS011;5969;50.780;7.726;2023-05-14T14:23:02;1.20;;;1.10;;
11823;SDS011;5969;50.780;7.726;2023-05-14T14:25:30;1.20;;;1.10;;
11823;SDS011;5969;50.780;7.726;2023-05-14T14:27:57;1.33;;;1.23;;
11823;SDS011;5969;50.780;7.726;2023-05-14T14:30:23;3.63;;;1.27;;
11823;SDS011;5969;50.780;7.726;2023-05-14T14:32:50;1.63;;;0.93;;
11823;SDS011;5969;50.780;7.726;2023-05-14T14:35:18;1.20;;;1.10;;
11823;SDS011;5969;50.780;7.726;2023-05-14T14:37:45;1.75;;;1.20;;
11823;SDS011;5969;50.780;7.726;2023-05-14T14:40:15;1.30;;;1.20;;
11823;SDS011;5969;50.780;7.726;2023-05-14T14:42:43;1.52;;;1.02;;
11823;SDS011;5969;50.780;7.726;2023-05-14T14:45:10;2.40;;;1.02;;
11823;SDS011;5969;50.780;7.726;2023-05-14T14:47:37;3.60;;;1.00;;
11823;SDS011;5969;50.780;7.726;2023-05-14T14:50:08;2.13;;;1.00;;
11823;SDS011;5969;50.780;7.726;2023-05-14T14:52:35;0.85;;;0.80;;
11823;SDS011;5969;50.780;7.726;2023-05-14T14:55:02;4.25;;;1.10;;
11823;SDS011;5969;50.780;7.726;2023-05-14T14:57:29;0.90;;;0.90;;
11823;SDS011;5969;50.780;7.726;2023-05-14T14:59:57;1.33;;;1.00;;
11823;SDS011;5969;50.780;7.726;2023-05-14T15:02:24;2.55;;;1.10;;
11823;SDS011;5969;50.780;7.726;2023-05-14T15:04:52;1.27;;;1.17;;